< < Back
Terminal Aerodrome Forecast


Current Version              Previous Versions:   1  2  3  4  5  6  7  8  9  

Terminal Aerodrome Forecast

019
FTUS44 KHUN 202320
TAFHSV
TAF
KHSV 202320Z 2100/2124 30010KT P6SM SCT060
     FM210200 VRB05KT P6SM SKC
     FM211800 25010KT P6SM SCT120=



Latest METAR

362
SAUS80 KWBC 210500
MTRHSV
METAR KHSV 210453Z 00000KT 10SM CLR 12/08 A2994 RMK AO2 SLP136 LAST
T01170078


USA.gov is the U.S. government's official web portal to all federal, state and local government web resources and services.